Airfield :
LOGIN :

Register | Disclaimer

   EN    FR    IT 

 










Legend :    VFR   Marginal VFR   IFR   Intensive IFR   Very Intensive IFR
Visi :
Ceiling :
>= 8 km
>= 3000ft
5 to 8 km
1000 to 3000 ft
1500m to 5 km
500 to 1000 ft
800 to 1500m
200 to 500 ft
< 800m
< 200 ft
Symbols :   Thunderstorms  Fog  Heavy snow  Heavy precipitations  Wind > 20 kt
SIGMETs :     Misc.  Thunderstorms  Icing  Turbulence  Mountain Waves  Volcanic Ashes







- Airport Elevation : 286 ft
- IATA code : FFD


EGVA - RAF Fairford

CURRENT METAR :
  • 191556Z AUTO 24004KT 9999 BKN055 16/08 A3014 RMK AO2 SLP210 T01600077 $

EXPIRED METARs :
  • 191546Z AUTO 25006KT 9999 SCT048 BKN055 16/08 A3014 RMK AO2 SLP210 $
  • 191521Z AUTO 00000KT 9999 BKN049 17/07 A3015 RMK AO2 SLP213 $
  • 191456Z AUTO 29004KT 9999 CLR 17/07 A3015 RMK AO2 SLP213 T01660067 58007 $
  • 191431Z AUTO 32005KT 9999 SCT045 17/07 A3015 RMK AO2 SLP213 $
  • 191356Z AUTO 00000KT 9999 BKN043 17/06 A3016 RMK AO2 SLP216 T01650063 $

Expired Forecast.
No reported NOTAMs for that airfield.



MET'MAP, your aeronautical weather chart ! - Copyright ORBIFLY December 2007 - Disclaimer

ORBIFLY MET'MAP TEAM :

Programming & Development : Alexandra Zaïnal
Concept & Development : Baudouin d'Aumeries
Co-Development & Prog : Marc-Olivier Méhu
Technical & hardware support : Manuel Goepfert

Contact : metmap@orbifly.com




SOURCES & CREDITS :

   NOAA